Time,TemperatureF,DewpointF,PressureIn,WindDirection,WindDirectionDegrees,WindSpeedMPH,WindSpeedGustMPH,Humidity,HourlyPrecipIn,Conditions,Clouds,dailyrainin,SoftwareType,DateUTC
2013-01-10 00:20:00,50.2,38.9,30.50,West,262,2.7,3.1,65,0.00,,SKC,0.00,VWS V14.01,2013-01-10 05:20:00,
2013-01-10 00:40:00,49.6,38.0,30.53,West,275,0.0,2.7,64,0.00,,SKC,0.00,VWS V14.01,2013-01-10 05:40:00,
2013-01-10 01:00:00,49.6,38.4,30.50,WNW,303,0.0,0.0,65,0.00,,SKC,0.00,VWS V14.01,2013-01-10 06:00:00,
2013-01-10 01:40:00,48.7,37.5,30.50,SW,235,0.0,0.0,65,0.00,,SKC,0.00,VWS V14.01,2013-01-10 06:40:00,
2013-01-10 02:00:00,48.4,37.6,30.50,West,278,0.0,0.0,66,0.00,,SKC,0.00,VWS V14.01,2013-01-10 07:00:00,
2013-01-10 02:20:00,47.7,36.5,30.53,WNW,287,0.0,0.0,65,0.00,,SKC,0.00,VWS V14.01,2013-01-10 07:20:00,
2013-01-10 02:40:00,47.3,36.9,30.53,WNW,287,0.0,0.0,67,0.00,,SKC,0.00,VWS V14.01,2013-01-10 07:40:00,
2013-01-10 03:00:00,46.8,36.4,30.53,WNW,287,0.0,0.0,67,0.00,,SKC,0.00,VWS V14.01,2013-01-10 08:00:00,
2013-01-10 03:20:00,46.2,35.9,30.50,WNW,288,0.0,0.0,67,0.00,,SKC,0.00,VWS V14.01,2013-01-10 08:20:00,
2013-01-10 03:40:00,45.7,35.7,30.53,WNW,287,0.0,0.0,68,0.00,,SKC,0.00,VWS V14.01,2013-01-10 08:40:00,
2013-01-10 04:00:00,45.0,35.0,30.50,WNW,287,0.0,0.0,68,0.00,,SKC,0.00,VWS V14.01,2013-01-10 09:00:00,
2013-01-10 04:20:00,44.8,34.9,30.50,WNW,287,0.0,0.0,68,0.00,,SKC,0.00,VWS V14.01,2013-01-10 09:20:00,
2013-01-10 04:40:00,44.8,35.2,30.50,WNW,287,0.0,0.0,69,0.00,,SKC,0.00,VWS V14.01,2013-01-10 09:40:00,
2013-01-10 05:00:00,43.7,34.6,30.50,WNW,287,0.0,0.0,70,0.00,,SKC,0.00,VWS V14.01,2013-01-10 10:00:00,
2013-01-10 05:20:00,43.0,33.9,30.50,WNW,287,0.0,0.0,70,0.00,,SKC,0.00,VWS V14.01,2013-01-10 10:20:00,
2013-01-10 05:40:00,42.8,34.4,30.50,WNW,287,0.0,0.0,72,0.00,,SKC,0.00,VWS V14.01,2013-01-10 10:40:00,
2013-01-10 06:00:00,43.0,34.9,30.50,WNW,287,0.0,0.0,73,0.00,,SKC,0.00,VWS V14.01,2013-01-10 11:00:00,
2013-01-10 06:20:00,43.2,35.5,30.53,WNW,287,0.0,0.0,74,0.00,,SKC,0.00,VWS V14.01,2013-01-10 11:20:00,
2013-01-10 06:40:00,43.5,36.1,30.53,WNW,287,0.0,0.0,75,0.00,,SKC,0.00,VWS V14.01,2013-01-10 11:40:00,
2013-01-10 07:00:00,43.7,36.3,30.53,WNW,287,0.0,0.0,75,0.00,,SKC,0.00,VWS V14.01,2013-01-10 12:00:00,
2013-01-10 07:20:00,43.7,36.6,30.53,WNW,287,0.0,0.0,76,0.00,,SKC,0.00,VWS V14.01,2013-01-10 12:20:00,
2013-01-10 09:40:00,47.7,42.4,30.56,WNW,287,0.0,0.0,82,0.00,,SKC,0.00,VWS V14.01,2013-01-10 14:40:00,
2013-01-10 10:00:00,48.7,43.5,30.56,WNW,287,0.0,0.0,82,0.00,,SKC,0.00,VWS V14.01,2013-01-10 15:00:00,
2013-01-10 10:20:00,50.0,45.0,30.56,WNW,287,0.0,0.0,83,0.00,,SKC,0.00,VWS V14.01,2013-01-10 15:20:00,
2013-01-10 10:40:00,53.6,49.8,30.56,WNW,287,0.0,0.0,87,0.00,,SKC,0.00,VWS V14.01,2013-01-10 15:40:00,
2013-01-10 11:00:00,56.7,51.2,30.56,ESE,109,0.0,4.0,82,0.00,,SKC,0.00,VWS V14.01,2013-01-10 16:00:00,
2013-01-10 11:20:00,57.0,45.8,30.56,East,101,0.0,5.4,66,0.00,,SKC,0.00,VWS V14.01,2013-01-10 16:20:00,
2013-01-10 11:40:00,57.7,42.6,30.53,East,99,0.0,0.0,57,0.00,,SKC,0.00,VWS V14.01,2013-01-10 16:40:00,
2013-01-10 12:00:00,56.7,36.1,30.53,East,89,0.0,6.3,46,0.00,,SKC,0.00,VWS V14.01,2013-01-10 17:00:00,
2013-01-10 12:20:00,55.4,35.0,30.53,East,90,0.0,6.3,46,0.00,,SKC,0.00,VWS V14.01,2013-01-10 17:20:00,
2013-01-10 12:40:00,55.6,35.7,30.53,East,101,0.0,4.9,47,0.00,,SKC,0.00,VWS V14.01,2013-01-10 17:40:00,
2013-01-10 13:00:00,55.0,34.7,30.53,East,96,0.0,6.3,46,0.00,,SKC,0.00,VWS V14.01,2013-01-10 18:00:00,
2013-01-10 13:20:00,55.0,34.1,30.53,East,93,0.0,5.4,45,0.00,,SKC,0.00,VWS V14.01,2013-01-10 18:20:00,
2013-01-10 13:40:00,55.0,33.5,30.50,East,95,0.0,0.0,44,0.00,,SKC,0.00,VWS V14.01,2013-01-10 18:40:00,
2013-01-10 14:00:00,55.0,32.4,30.50,East,94,0.0,0.0,42,0.00,,SKC,0.00,VWS V14.01,2013-01-10 19:00:00,
2013-01-10 14:20:00,54.5,31.3,30.50,East,95,0.0,0.0,41,0.00,,SKC,0.00,VWS V14.01,2013-01-10 19:20:00,
2013-01-10 14:40:00,54.3,30.5,30.50,East,80,0.0,0.0,40,0.00,,SKC,0.00,VWS V14.01,2013-01-10 19:40:00,
2013-01-10 15:00:00,54.1,27.8,30.50,East,101,0.0,8.1,36,0.00,,SKC,0.00,VWS V14.01,2013-01-10 20:00:00,
2013-01-10 15:20:00,54.0,27.0,30.50,East,99,0.0,5.8,35,0.00,,SKC,0.00,VWS V14.01,2013-01-10 20:20:00,
2013-01-10 15:40:00,53.4,25.1,30.50,ESE,106,0.0,4.9,33,0.00,,SKC,0.00,VWS V14.01,2013-01-10 20:40:00,
2013-01-10 16:00:00,53.2,22.6,30.50,SE,142,0.0,3.6,30,0.00,,SKC,0.00,VWS V14.01,2013-01-10 21:00:00,
2013-01-10 16:20:00,53.1,20.0,30.50,East,101,0.0,3.6,27,0.00,,SKC,0.00,VWS V14.01,2013-01-10 21:20:00,
2013-01-10 16:40:00,52.7,16.0,30.50,East,100,0.0,6.3,23,0.00,,SKC,0.00,VWS V14.01,2013-01-10 21:40:00,
2013-01-10 17:00:00,52.2,13.4,30.50,ESE,104,0.0,5.8,21,0.00,,SKC,0.00,VWS V14.01,2013-01-10 22:00:00,
2013-01-10 17:20:00,51.3,12.7,30.50,ESE,102,0.0,3.6,21,0.00,,SKC,0.00,VWS V14.01,2013-01-10 22:20:00,
2013-01-10 17:40:00,50.4,11.9,30.50,ESE,102,0.0,0.0,21,0.00,,SKC,0.00,VWS V14.01,2013-01-10 22:40:00,
2013-01-10 18:00:00,49.6,11.3,30.50,ESE,103,2.2,5.4,21,0.00,,SKC,0.00,VWS V14.01,2013-01-10 23:00:00,
2013-01-10 18:20:00,48.7,8.3,30.50,East,96,4.5,5.4,19,0.00,,SKC,0.00,VWS V14.01,2013-01-10 23:20:00,
2013-01-10 18:40:00,47.7,7.4,30.50,ESE,108,0.0,4.5,19,0.00,,SKC,0.00,VWS V14.01,2013-01-10 23:40:00,
2013-01-10 19:00:00,47.1,7.0,30.50,ESE,115,3.1,4.0,19,0.00,,SKC,0.00,VWS V14.01,2013-01-11 00:00:00,
2013-01-10 19:20:00,47.3,7.1,30.50,East,89,0.0,4.5,19,0.00,,SKC,0.00,VWS V14.01,2013-01-11 00:20:00,
2013-01-10 19:40:00,46.9,6.8,30.50,ESE,108,5.4,8.3,19,0.00,,SKC,0.00,VWS V14.01,2013-01-11 00:40:00,
2013-01-10 20:00:00,47.3,7.1,30.50,ESE,112,6.3,8.3,19,0.00,,SKC,0.00,VWS V14.01,2013-01-11 01:00:00,
2013-01-10 20:20:00,47.7,7.4,30.50,ESE,117,3.6,9.2,19,0.00,,SKC,0.00,VWS V14.01,2013-01-11 01:20:00,
2013-01-10 20:40:00,47.5,7.3,30.50,ESE,102,5.8,10.1,19,0.00,,SKC,0.00,VWS V14.01,2013-01-11 01:40:00,
2013-01-10 21:00:00,47.8,7.6,30.50,ESE,106,3.6,8.7,19,0.00,,SKC,0.00,VWS V14.01,2013-01-11 02:00:00,
2013-01-10 21:20:00,47.8,7.6,30.50,East,101,5.8,8.7,19,0.00,,SKC,0.00,VWS V14.01,2013-01-11 02:20:00,
2013-01-10 21:40:00,47.7,7.4,30.50,East,94,6.3,8.7,19,0.00,,SKC,0.00,VWS V14.01,2013-01-11 02:40:00,
2013-01-10 22:00:00,47.5,7.3,30.50,ESE,114,5.4,8.7,19,0.00,,SKC,0.00,VWS V14.01,2013-01-11 03:00:00,
2013-01-10 22:20:00,47.3,7.1,30.50,ESE,102,4.0,6.3,19,0.00,,SKC,0.00,VWS V14.01,2013-01-11 03:20:00,
2013-01-10 22:40:00,47.1,7.0,30.47,ESE,103,5.8,5.8,19,0.00,,SKC,0.00,VWS V14.01,2013-01-11 03:40:00,
2013-01-10 23:00:00,46.9,6.8,30.47,ESE,107,3.6,6.3,19,0.00,,SKC,0.00,VWS V14.01,2013-01-11 04:00:00,
2013-01-10 23:20:00,47.1,7.0,30.47,ESE,105,4.0,6.3,19,0.00,,SKC,0.00,VWS V14.01,2013-01-11 04:20:00,
2013-01-10 23:40:00,47.1,7.0,30.45,ESE,104,4.0,6.3,19,0.00,,SKC,0.00,VWS V14.01,2013-01-11 04:40:00,